sensor_id;sensor_type;location;lat;lon;timestamp;temperature;humidity
22379;DHT22;11357;49.990;7.370;2022-12-18T00:01:36;-2.00;76.80
22379;DHT22;11357;49.990;7.370;2022-12-18T00:04:06;-2.00;76.90
22379;DHT22;11357;49.990;7.370;2022-12-18T00:06:34;-2.00;76.90
22379;DHT22;11357;49.990;7.370;2022-12-18T00:09:02;-2.00;76.90
22379;DHT22;11357;49.990;7.370;2022-12-18T00:11:30;-2.00;76.90
22379;DHT22;11357;49.990;7.370;2022-12-18T00:13:58;-1.90;76.90
22379;DHT22;11357;49.990;7.370;2022-12-18T00:16:26;-2.00;76.90
22379;DHT22;11357;49.990;7.370;2022-12-18T00:18:54;-2.00;76.90
22379;DHT22;11357;49.990;7.370;2022-12-18T00:21:20;-1.90;76.90
22379;DHT22;11357;49.990;7.370;2022-12-18T00:23:48;-1.90;76.90
22379;DHT22;11357;49.990;7.370;2022-12-18T00:26:17;-1.90;76.90
22379;DHT22;11357;49.990;7.370;2022-12-18T00:28:44;-1.90;76.90
22379;DHT22;11357;49.990;7.370;2022-12-18T00:31:12;-2.00;77.00
22379;DHT22;11357;49.990;7.370;2022-12-18T00:33:38;-1.90;77.10
22379;DHT22;11357;49.990;7.370;2022-12-18T00:36:10;-1.90;77.00
22379;DHT22;11357;49.990;7.370;2022-12-18T00:38:37;-1.80;77.00
22379;DHT22;11357;49.990;7.370;2022-12-18T00:41:03;-1.80;76.80
22379;DHT22;11357;49.990;7.370;2022-12-18T00:43:29;-1.90;76.50
22379;DHT22;11357;49.990;7.370;2022-12-18T00:45:55;-1.90;76.40
22379;DHT22;11357;49.990;7.370;2022-12-18T00:48:21;-1.90;76.40
22379;DHT22;11357;49.990;7.370;2022-12-18T00:50:48;-1.90;76.40
22379;DHT22;11357;49.990;7.370;2022-12-18T00:53:14;-1.90;76.40
22379;DHT22;11357;49.990;7.370;2022-12-18T00:55:40;-1.90;76.40
22379;DHT22;11357;49.990;7.370;2022-12-18T00:58:07;-1.90;76.50
22379;DHT22;11357;49.990;7.370;2022-12-18T01:00:33;-1.90;76.50
22379;DHT22;11357;49.990;7.370;2022-12-18T01:02:58;-2.00;76.40
22379;DHT22;11357;49.990;7.370;2022-12-18T01:05:24;-1.90;76.40
22379;DHT22;11357;49.990;7.370;2022-12-18T01:07:50;-2.00;76.30
22379;DHT22;11357;49.990;7.370;2022-12-18T01:10:16;-1.90;76.30
22379;DHT22;11357;49.990;7.370;2022-12-18T01:12:42;-2.00;76.30
22379;DHT22;11357;49.990;7.370;2022-12-18T01:15:09;-2.00;76.50
22379;DHT22;11357;49.990;7.370;2022-12-18T01:17:35;-2.00;76.50
22379;DHT22;11357;49.990;7.370;2022-12-18T01:20:00;-2.10;76.50
22379;DHT22;11357;49.990;7.370;2022-12-18T01:22:26;-2.10;76.50
22379;DHT22;11357;49.990;7.370;2022-12-18T01:24:52;-2.20;76.60
22379;DHT22;11357;49.990;7.370;2022-12-18T01:27:17;-2.20;76.70
22379;DHT22;11357;49.990;7.370;2022-12-18T01:29:46;-2.20;76.70
22379;DHT22;11357;49.990;7.370;2022-12-18T01:32:11;-2.20;76.70
22379;DHT22;11357;49.990;7.370;2022-12-18T01:34:37;-2.30;76.70
22379;DHT22;11357;49.990;7.370;2022-12-18T01:37:04;-2.30;76.80
22379;DHT22;11357;49.990;7.370;2022-12-18T01:39:30;-2.30;76.80
22379;DHT22;11357;49.990;7.370;2022-12-18T01:41:58;-2.40;76.70
22379;DHT22;11357;49.990;7.370;2022-12-18T01:48:03;-2.40;76.60
22379;DHT22;11357;49.990;7.370;2022-12-18T01:55:35;-2.30;76.80
22379;DHT22;11357;49.990;7.370;2022-12-18T01:58:02;-2.30;76.80
22379;DHT22;11357;49.990;7.370;2022-12-18T02:00:29;-2.30;76.70
22379;DHT22;11357;49.990;7.370;2022-12-18T02:02:55;-2.30;76.80
22379;DHT22;11357;49.990;7.370;2022-12-18T02:11:27;-2.40;76.90
22379;DHT22;11357;49.990;7.370;2022-12-18T02:17:05;-2.40;77.10
22379;DHT22;11357;49.990;7.370;2022-12-18T02:27:26;-2.60;77.00
22379;DHT22;11357;49.990;7.370;2022-12-18T02:29:54;-2.60;77.00
22379;DHT22;11357;49.990;7.370;2022-12-18T02:32:25;-2.60;76.90
22379;DHT22;11357;49.990;7.370;2022-12-18T02:34:55;-2.60;76.80
22379;DHT22;11357;49.990;7.370;2022-12-18T02:37:22;-2.70;76.70
22379;DHT22;11357;49.990;7.370;2022-12-18T02:39:49;-2.70;76.70
22379;DHT22;11357;49.990;7.370;2022-12-18T02:42:16;-2.70;76.70
22379;DHT22;11357;49.990;7.370;2022-12-18T02:44:51;-2.70;76.80
22379;DHT22;11357;49.990;7.370;2022-12-18T02:47:24;-2.70;76.80
22379;DHT22;11357;49.990;7.370;2022-12-18T03:01:28;-2.70;76.90
22379;DHT22;11357;49.990;7.370;2022-12-18T03:04:11;-2.70;76.90
22379;DHT22;11357;49.990;7.370;2022-12-18T03:06:44;-2.70;76.90
22379;DHT22;11357;49.990;7.370;2022-12-18T03:09:16;-2.70;76.90
22379;DHT22;11357;49.990;7.370;2022-12-18T03:11:49;-2.70;77.00
22379;DHT22;11357;49.990;7.370;2022-12-18T03:14:37;-2.60;76.90
22379;DHT22;11357;49.990;7.370;2022-12-18T03:17:05;-2.60;76.80
22379;DHT22;11357;49.990;7.370;2022-12-18T03:19:33;-2.60;76.80
22379;DHT22;11357;49.990;7.370;2022-12-18T03:22:02;-2.70;76.80
22379;DHT22;11357;49.990;7.370;2022-12-18T03:24:29;-2.70;76.70
22379;DHT22;11357;49.990;7.370;2022-12-18T03:27:01;-2.70;76.60
22379;DHT22;11357;49.990;7.370;2022-12-18T03:29:36;-2.70;76.60
22379;DHT22;11357;49.990;7.370;2022-12-18T03:32:16;-2.70;76.40
22379;DHT22;11357;49.990;7.370;2022-12-18T03:34:44;-2.70;76.40
22379;DHT22;11357;49.990;7.370;2022-12-18T03:37:12;-2.70;76.30
22379;DHT22;11357;49.990;7.370;2022-12-18T03:39:37;-2.70;76.20
22379;DHT22;11357;49.990;7.370;2022-12-18T03:42:32;-2.80;76.00
22379;DHT22;11357;49.990;7.370;2022-12-18T03:50:27;-2.80;75.90
22379;DHT22;11357;49.990;7.370;2022-12-18T03:55:37;-2.80;75.70
22379;DHT22;11357;49.990;7.370;2022-12-18T03:58:04;-2.90;75.70
22379;DHT22;11357;49.990;7.370;2022-12-18T04:00:31;-2.90;75.80
22379;DHT22;11357;49.990;7.370;2022-12-18T04:03:00;-2.90;75.70
22379;DHT22;11357;49.990;7.370;2022-12-18T04:05:27;-2.90;75.70
22379;DHT22;11357;49.990;7.370;2022-12-18T04:07:54;-3.00;75.70
22379;DHT22;11357;49.990;7.370;2022-12-18T04:10:21;-3.00;75.70
22379;DHT22;11357;49.990;7.370;2022-12-18T04:12:46;-3.00;75.60
22379;DHT22;11357;49.990;7.370;2022-12-18T04:15:12;-3.00;75.60
22379;DHT22;11357;49.990;7.370;2022-12-18T04:17:39;-3.10;75.40
22379;DHT22;11357;49.990;7.370;2022-12-18T04:20:08;-3.10;75.30
22379;DHT22;11357;49.990;7.370;2022-12-18T04:22:34;-3.20;75.30
22379;DHT22;11357;49.990;7.370;2022-12-18T04:25:00;-3.30;75.30
22379;DHT22;11357;49.990;7.370;2022-12-18T04:27:26;-3.30;75.30
22379;DHT22;11357;49.990;7.370;2022-12-18T04:29:52;-3.30;75.40
22379;DHT22;11357;49.990;7.370;2022-12-18T04:32:17;-3.30;75.30
22379;DHT22;11357;49.990;7.370;2022-12-18T04:34:43;-3.30;75.20
22379;DHT22;11357;49.990;7.370;2022-12-18T04:37:09;-3.40;75.10
22379;DHT22;11357;49.990;7.370;2022-12-18T04:39:34;-3.40;75.10
22379;DHT22;11357;49.990;7.370;2022-12-18T04:42:01;-3.40;75.10
22379;DHT22;11357;49.990;7.370;2022-12-18T04:44:26;-3.40;75.20
22379;DHT22;11357;49.990;7.370;2022-12-18T04:46:52;-3.40;75.30
22379;DHT22;11357;49.990;7.370;2022-12-18T04:49:18;-3.40;75.20
22379;DHT22;11357;49.990;7.370;2022-12-18T04:51:43;-3.50;75.10
22379;DHT22;11357;49.990;7.370;2022-12-18T04:54:09;-3.40;75.20
22379;DHT22;11357;49.990;7.370;2022-12-18T04:56:35;-3.50;75.20
22379;DHT22;11357;49.990;7.370;2022-12-18T04:59:00;-3.50;75.20
22379;DHT22;11357;49.990;7.370;2022-12-18T05:01:26;-3.50;75.20
22379;DHT22;11357;49.990;7.370;2022-12-18T05:03:52;-3.50;75.20
22379;DHT22;11357;49.990;7.370;2022-12-18T05:06:18;-3.50;75.10
22379;DHT22;11357;49.990;7.370;2022-12-18T05:08:43;-3.60;75.10
22379;DHT22;11357;49.990;7.370;2022-12-18T05:11:12;-3.60;75.10
22379;DHT22;11357;49.990;7.370;2022-12-18T05:13:41;-3.60;75.20
22379;DHT22;11357;49.990;7.370;2022-12-18T05:16:07;-3.70;75.10
22379;DHT22;11357;49.990;7.370;2022-12-18T05:18:34;-3.80;75.10
22379;DHT22;11357;49.990;7.370;2022-12-18T05:20:59;-3.80;75.10
22379;DHT22;11357;49.990;7.370;2022-12-18T05:23:25;-3.80;75.10
22379;DHT22;11357;49.990;7.370;2022-12-18T05:25:58;-3.90;75.30
22379;DHT22;11357;49.990;7.370;2022-12-18T05:28:25;-3.90;75.40
22379;DHT22;11357;49.990;7.370;2022-12-18T05:30:54;-3.90;76.30
22379;DHT22;11357;49.990;7.370;2022-12-18T05:33:21;-3.90;75.50
22379;DHT22;11357;49.990;7.370;2022-12-18T05:35:55;-3.90;75.50
22379;DHT22;11357;49.990;7.370;2022-12-18T05:38:21;-3.90;75.50
22379;DHT22;11357;49.990;7.370;2022-12-18T05:40:48;-3.90;75.60
22379;DHT22;11357;49.990;7.370;2022-12-18T05:43:14;-3.90;75.60
22379;DHT22;11357;49.990;7.370;2022-12-18T05:45:42;-3.90;75.50
22379;DHT22;11357;49.990;7.370;2022-12-18T05:48:08;-3.80;75.60
22379;DHT22;11357;49.990;7.370;2022-12-18T05:50:36;-3.80;75.50
22379;DHT22;11357;49.990;7.370;2022-12-18T05:53:02;-3.80;75.50
22379;DHT22;11357;49.990;7.370;2022-12-18T05:55:28;-3.80;75.40
22379;DHT22;11357;49.990;7.370;2022-12-18T05:57:54;-3.80;75.40
22379;DHT22;11357;49.990;7.370;2022-12-18T06:00:20;-3.70;75.40
22379;DHT22;11357;49.990;7.370;2022-12-18T06:02:48;-3.70;75.40
22379;DHT22;11357;49.990;7.370;2022-12-18T06:05:14;-3.70;75.40
22379;DHT22;11357;49.990;7.370;2022-12-18T06:07:40;-3.60;75.40
22379;DHT22;11357;49.990;7.370;2022-12-18T06:10:06;-3.60;75.30
22379;DHT22;11357;49.990;7.370;2022-12-18T06:12:32;-3.50;75.50
22379;DHT22;11357;49.990;7.370;2022-12-18T06:14:59;-3.50;75.60
22379;DHT22;11357;49.990;7.370;2022-12-18T06:17:29;-3.50;75.70
22379;DHT22;11357;49.990;7.370;2022-12-18T06:19:55;-3.40;75.80
22379;DHT22;11357;49.990;7.370;2022-12-18T06:22:21;-3.40;75.90
22379;DHT22;11357;49.990;7.370;2022-12-18T06:24:46;-3.40;76.00
22379;DHT22;11357;49.990;7.370;2022-12-18T06:27:12;-3.40;76.10
22379;DHT22;11357;49.990;7.370;2022-12-18T06:29:38;-3.30;76.20
22379;DHT22;11357;49.990;7.370;2022-12-18T06:32:04;-3.30;76.20
22379;DHT22;11357;49.990;7.370;2022-12-18T06:34:30;-3.30;76.40
22379;DHT22;11357;49.990;7.370;2022-12-18T06:36:59;-3.30;76.50
22379;DHT22;11357;49.990;7.370;2022-12-18T06:39:27;-3.30;76.60
22379;DHT22;11357;49.990;7.370;2022-12-18T06:41:53;-3.30;76.50
22379;DHT22;11357;49.990;7.370;2022-12-18T06:44:19;-3.30;76.60
22379;DHT22;11357;49.990;7.370;2022-12-18T06:46:44;-3.20;76.70
22379;DHT22;11357;49.990;7.370;2022-12-18T06:49:10;-3.20;76.70
22379;DHT22;11357;49.990;7.370;2022-12-18T06:51:36;-3.20;76.70
22379;DHT22;11357;49.990;7.370;2022-12-18T06:54:02;-3.20;76.70
22379;DHT22;11357;49.990;7.370;2022-12-18T06:56:28;-3.20;76.70
22379;DHT22;11357;49.990;7.370;2022-12-18T06:58:54;-3.20;76.70
22379;DHT22;11357;49.990;7.370;2022-12-18T07:01:20;-3.20;76.70
22379;DHT22;11357;49.990;7.370;2022-12-18T07:03:46;-3.20;77.40
22379;DHT22;11357;49.990;7.370;2022-12-18T07:06:17;-3.20;76.80
22379;DHT22;11357;49.990;7.370;2022-12-18T07:08:43;-3.20;76.80
22379;DHT22;11357;49.990;7.370;2022-12-18T07:11:09;-3.20;76.80
22379;DHT22;11357;49.990;7.370;2022-12-18T07:13:35;-3.10;76.90
22379;DHT22;11357;49.990;7.370;2022-12-18T07:16:09;-3.20;76.90
22379;DHT22;11357;49.990;7.370;2022-12-18T07:18:35;-3.20;77.00
22379;DHT22;11357;49.990;7.370;2022-12-18T07:21:13;-3.10;77.10
22379;DHT22;11357;49.990;7.370;2022-12-18T07:23:39;-3.10;77.10
22379;DHT22;11357;49.990;7.370;2022-12-18T07:26:08;-3.00;77.10
22379;DHT22;11357;49.990;7.370;2022-12-18T07:28:35;-3.00;77.00
22379;DHT22;11357;49.990;7.370;2022-12-18T07:31:09;-3.00;77.00
22379;DHT22;11357;49.990;7.370;2022-12-18T07:33:35;-3.00;77.10
22379;DHT22;11357;49.990;7.370;2022-12-18T07:36:02;-3.00;77.20
22379;DHT22;11357;49.990;7.370;2022-12-18T07:38:29;-3.00;77.30
22379;DHT22;11357;49.990;7.370;2022-12-18T07:40:59;-3.00;77.20
22379;DHT22;11357;49.990;7.370;2022-12-18T07:43:25;-3.00;77.30
22379;DHT22;11357;49.990;7.370;2022-12-18T07:45:50;-3.00;77.40
22379;DHT22;11357;49.990;7.370;2022-12-18T07:48:16;-3.00;77.30
22379;DHT22;11357;49.990;7.370;2022-12-18T07:50:42;-2.90;77.30
22379;DHT22;11357;49.990;7.370;2022-12-18T07:53:07;-2.90;77.50
22379;DHT22;11357;49.990;7.370;2022-12-18T07:55:33;-2.90;77.50
22379;DHT22;11357;49.990;7.370;2022-12-18T07:58:01;-2.90;77.50
22379;DHT22;11357;49.990;7.370;2022-12-18T08:00:27;-2.80;77.50
22379;DHT22;11357;49.990;7.370;2022-12-18T08:02:53;-2.80;77.50
22379;DHT22;11357;49.990;7.370;2022-12-18T08:05:19;-2.80;77.30
22379;DHT22;11357;49.990;7.370;2022-12-18T08:07:46;-2.90;77.20
22379;DHT22;11357;49.990;7.370;2022-12-18T08:10:12;-2.90;77.30
22379;DHT22;11357;49.990;7.370;2022-12-18T08:12:37;-2.90;77.40
22379;DHT22;11357;49.990;7.370;2022-12-18T08:15:03;-2.80;77.60
22379;DHT22;11357;49.990;7.370;2022-12-18T08:17:29;-2.80;77.70
22379;DHT22;11357;49.990;7.370;2022-12-18T08:19:57;-2.80;77.90
22379;DHT22;11357;49.990;7.370;2022-12-18T08:22:23;-2.80;78.00
22379;DHT22;11357;49.990;7.370;2022-12-18T08:24:49;-2.70;78.10
22379;DHT22;11357;49.990;7.370;2022-12-18T08:27:14;-2.70;78.20
22379;DHT22;11357;49.990;7.370;2022-12-18T08:29:40;-2.70;78.20
22379;DHT22;11357;49.990;7.370;2022-12-18T08:32:06;-2.70;78.20
22379;DHT22;11357;49.990;7.370;2022-12-18T08:34:31;-2.60;78.30
22379;DHT22;11357;49.990;7.370;2022-12-18T08:36:57;-2.60;78.30
22379;DHT22;11357;49.990;7.370;2022-12-18T08:39:23;-2.50;78.40
22379;DHT22;11357;49.990;7.370;2022-12-18T08:41:48;-2.50;78.40
22379;DHT22;11357;49.990;7.370;2022-12-18T08:44:34;-2.40;78.50
22379;DHT22;11357;49.990;7.370;2022-12-18T08:47:03;-2.30;78.50
22379;DHT22;11357;49.990;7.370;2022-12-18T08:49:29;-2.30;78.60
22379;DHT22;11357;49.990;7.370;2022-12-18T08:51:55;-2.20;78.70
22379;DHT22;11357;49.990;7.370;2022-12-18T08:54:23;-2.20;78.70
22379;DHT22;11357;49.990;7.370;2022-12-18T08:56:49;-2.10;78.70
22379;DHT22;11357;49.990;7.370;2022-12-18T08:59:18;-2.10;78.60
22379;DHT22;11357;49.990;7.370;2022-12-18T09:01:47;-2.00;78.70
22379;DHT22;11357;49.990;7.370;2022-12-18T09:04:13;-1.90;78.80
22379;DHT22;11357;49.990;7.370;2022-12-18T09:06:39;-1.90;78.70
22379;DHT22;11357;49.990;7.370;2022-12-18T09:09:06;-1.80;78.70
22379;DHT22;11357;49.990;7.370;2022-12-18T09:11:32;-1.70;78.80
22379;DHT22;11357;49.990;7.370;2022-12-18T09:14:00;-1.70;78.80
22379;DHT22;11357;49.990;7.370;2022-12-18T09:16:28;-1.60;78.70
22379;DHT22;11357;49.990;7.370;2022-12-18T09:18:57;-1.50;78.60
22379;DHT22;11357;49.990;7.370;2022-12-18T09:21:26;-1.40;78.70
22379;DHT22;11357;49.990;7.370;2022-12-18T09:23:54;-1.40;78.60
22379;DHT22;11357;49.990;7.370;2022-12-18T09:26:24;-1.30;78.70
22379;DHT22;11357;49.990;7.370;2022-12-18T09:28:51;-1.20;78.70
22379;DHT22;11357;49.990;7.370;2022-12-18T09:31:18;-1.20;78.70
22379;DHT22;11357;49.990;7.370;2022-12-18T09:33:44;-1.20;78.80
22379;DHT22;11357;49.990;7.370;2022-12-18T09:36:13;-1.10;78.80
22379;DHT22;11357;49.990;7.370;2022-12-18T09:38:39;-1.10;78.80
22379;DHT22;11357;49.990;7.370;2022-12-18T09:43:51;-1.00;78.80
22379;DHT22;11357;49.990;7.370;2022-12-18T09:46:34;-0.90;78.90
22379;DHT22;11357;49.990;7.370;2022-12-18T09:49:07;-0.80;78.90
22379;DHT22;11357;49.990;7.370;2022-12-18T09:52:02;-0.80;79.00
22379;DHT22;11357;49.990;7.370;2022-12-18T09:54:57;-0.80;79.10
22379;DHT22;11357;49.990;7.370;2022-12-18T09:57:25;-0.70;79.10
22379;DHT22;11357;49.990;7.370;2022-12-18T10:00:15;-0.70;79.00
22379;DHT22;11357;49.990;7.370;2022-12-18T10:02:43;-0.60;79.10
22379;DHT22;11357;49.990;7.370;2022-12-18T10:05:15;-0.60;79.00
22379;DHT22;11357;49.990;7.370;2022-12-18T10:13:31;-0.50;78.80
22379;DHT22;11357;49.990;7.370;2022-12-18T10:21:51;-0.50;78.50
22379;DHT22;11357;49.990;7.370;2022-12-18T10:24:40;-0.40;78.50
22379;DHT22;11357;49.990;7.370;2022-12-18T10:27:15;-0.40;78.40
22379;DHT22;11357;49.990;7.370;2022-12-18T10:29:43;-0.40;79.00
22379;DHT22;11357;49.990;7.370;2022-12-18T10:32:22;-0.40;78.30
22379;DHT22;11357;49.990;7.370;2022-12-18T10:34:49;-0.40;78.20
22379;DHT22;11357;49.990;7.370;2022-12-18T10:37:17;-0.30;78.20
22379;DHT22;11357;49.990;7.370;2022-12-18T10:39:44;-0.30;78.10
22379;DHT22;11357;49.990;7.370;2022-12-18T10:42:18;-0.30;78.00
22379;DHT22;11357;49.990;7.370;2022-12-18T10:44:44;-0.40;77.90
22379;DHT22;11357;49.990;7.370;2022-12-18T10:47:15;-0.40;77.80
22379;DHT22;11357;49.990;7.370;2022-12-18T10:49:49;-0.50;77.80
22379;DHT22;11357;49.990;7.370;2022-12-18T10:52:23;-0.50;77.80
22379;DHT22;11357;49.990;7.370;2022-12-18T10:54:53;-0.50;77.90
22379;DHT22;11357;49.990;7.370;2022-12-18T10:59:57;-0.60;77.70
22379;DHT22;11357;49.990;7.370;2022-12-18T11:02:39;-0.50;77.80
22379;DHT22;11357;49.990;7.370;2022-12-18T11:05:24;-0.50;77.80
22379;DHT22;11357;49.990;7.370;2022-12-18T11:07:50;-0.50;77.90
22379;DHT22;11357;49.990;7.370;2022-12-18T11:10:20;-0.50;77.70
22379;DHT22;11357;49.990;7.370;2022-12-18T11:12:47;-0.50;77.60
22379;DHT22;11357;49.990;7.370;2022-12-18T11:15:39;-0.50;77.60
22379;DHT22;11357;49.990;7.370;2022-12-18T11:20:59;-0.50;77.30
22379;DHT22;11357;49.990;7.370;2022-12-18T11:23:26;-0.60;77.20
22379;DHT22;11357;49.990;7.370;2022-12-18T11:25:56;-0.60;77.30
22379;DHT22;11357;49.990;7.370;2022-12-18T11:33:34;-0.60;77.30
22379;DHT22;11357;49.990;7.370;2022-12-18T11:36:02;-0.60;77.30
22379;DHT22;11357;49.990;7.370;2022-12-18T11:38:35;-0.60;77.40
22379;DHT22;11357;49.990;7.370;2022-12-18T11:41:37;-0.60;77.40
22379;DHT22;11357;49.990;7.370;2022-12-18T11:44:31;-0.60;78.10
22379;DHT22;11357;49.990;7.370;2022-12-18T11:49:59;-0.60;77.30
22379;DHT22;11357;49.990;7.370;2022-12-18T11:52:35;-0.50;77.10
22379;DHT22;11357;49.990;7.370;2022-12-18T11:58:19;-0.60;77.10
22379;DHT22;11357;49.990;7.370;2022-12-18T12:01:16;-0.60;76.90
22379;DHT22;11357;49.990;7.370;2022-12-18T12:14:32;-0.50;76.80
22379;DHT22;11357;49.990;7.370;2022-12-18T12:28:16;-0.50;76.60
22379;DHT22;11357;49.990;7.370;2022-12-18T12:30:46;-0.50;76.60
22379;DHT22;11357;49.990;7.370;2022-12-18T12:34:01;-0.40;76.60
22379;DHT22;11357;49.990;7.370;2022-12-18T12:39:06;-0.40;76.40
22379;DHT22;11357;49.990;7.370;2022-12-18T12:41:33;-0.40;76.30
22379;DHT22;11357;49.990;7.370;2022-12-18T12:44:23;-0.40;76.30
22379;DHT22;11357;49.990;7.370;2022-12-18T12:46:51;-0.40;76.20
22379;DHT22;11357;49.990;7.370;2022-12-18T12:49:20;-0.50;76.00
22379;DHT22;11357;49.990;7.370;2022-12-18T12:52:00;-0.60;75.90
22379;DHT22;11357;49.990;7.370;2022-12-18T12:54:32;-0.80;76.10
22379;DHT22;11357;49.990;7.370;2022-12-18T13:00:00;-1.00;76.50
22379;DHT22;11357;49.990;7.370;2022-12-18T13:02:56;-1.10;76.70
22379;DHT22;11357;49.990;7.370;2022-12-18T13:08:03;-1.20;77.10
22379;DHT22;11357;49.990;7.370;2022-12-18T13:10:40;-1.20;77.10
22379;DHT22;11357;49.990;7.370;2022-12-18T13:13:07;-1.20;77.20
22379;DHT22;11357;49.990;7.370;2022-12-18T13:15:40;-1.20;77.40
22379;DHT22;11357;49.990;7.370;2022-12-18T13:20:43;-1.10;77.50
22379;DHT22;11357;49.990;7.370;2022-12-18T13:28:18;-1.00;77.30
22379;DHT22;11357;49.990;7.370;2022-12-18T13:38:22;-1.10;77.40
22379;DHT22;11357;49.990;7.370;2022-12-18T13:48:34;-1.10;77.40
22379;DHT22;11357;49.990;7.370;2022-12-18T13:51:06;-1.00;77.40
22379;DHT22;11357;49.990;7.370;2022-12-18T13:56:26;-1.10;77.60
22379;DHT22;11357;49.990;7.370;2022-12-18T13:59:12;-1.10;77.40
22379;DHT22;11357;49.990;7.370;2022-12-18T14:01:53;-1.20;77.60
22379;DHT22;11357;49.990;7.370;2022-12-18T14:04:28;-1.20;77.70
22379;DHT22;11357;49.990;7.370;2022-12-18T14:07:01;-1.20;77.70
22379;DHT22;11357;49.990;7.370;2022-12-18T14:09:45;-1.20;77.80
22379;DHT22;11357;49.990;7.370;2022-12-18T14:12:25;-1.20;77.80
22379;DHT22;11357;49.990;7.370;2022-12-18T14:15:33;-1.20;77.80
22379;DHT22;11357;49.990;7.370;2022-12-18T14:20:43;-1.30;77.80
22379;DHT22;11357;49.990;7.370;2022-12-18T14:23:45;-1.30;77.80
22379;DHT22;11357;49.990;7.370;2022-12-18T14:26:24;-1.40;77.90
22379;DHT22;11357;49.990;7.370;2022-12-18T14:28:52;-1.50;78.00
22379;DHT22;11357;49.990;7.370;2022-12-18T14:31:26;-1.50;78.10
22379;DHT22;11357;49.990;7.370;2022-12-18T14:33:52;-1.50;78.30
22379;DHT22;11357;49.990;7.370;2022-12-18T14:36:38;-1.50;78.30
22379;DHT22;11357;49.990;7.370;2022-12-18T14:39:17;-1.50;78.30
22379;DHT22;11357;49.990;7.370;2022-12-18T14:41:42;-1.60;78.50
22379;DHT22;11357;49.990;7.370;2022-12-18T14:44:11;-1.60;78.60
22379;DHT22;11357;49.990;7.370;2022-12-18T14:46:39;-1.60;78.80
22379;DHT22;11357;49.990;7.370;2022-12-18T14:49:29;-1.70;78.90
22379;DHT22;11357;49.990;7.370;2022-12-18T14:52:06;-1.70;79.10
22379;DHT22;11357;49.990;7.370;2022-12-18T14:54:46;-1.70;79.20
22379;DHT22;11357;49.990;7.370;2022-12-18T14:57:22;-1.70;79.20
22379;DHT22;11357;49.990;7.370;2022-12-18T14:59:49;-1.70;79.40
22379;DHT22;11357;49.990;7.370;2022-12-18T15:02:26;-1.60;79.20
22379;DHT22;11357;49.990;7.370;2022-12-18T15:05:04;-1.60;79.10
22379;DHT22;11357;49.990;7.370;2022-12-18T15:10:13;-1.50;79.00
22379;DHT22;11357;49.990;7.370;2022-12-18T15:12:49;-1.50;78.90
22379;DHT22;11357;49.990;7.370;2022-12-18T15:18:03;-1.60;79.00
22379;DHT22;11357;49.990;7.370;2022-12-18T15:25:42;-1.70;79.90
22379;DHT22;11357;49.990;7.370;2022-12-18T15:31:20;-1.70;79.50
22379;DHT22;11357;49.990;7.370;2022-12-18T15:34:09;-1.70;79.40
22379;DHT22;11357;49.990;7.370;2022-12-18T15:36:36;-1.60;79.40
22379;DHT22;11357;49.990;7.370;2022-12-18T15:39:02;-1.60;79.40
22379;DHT22;11357;49.990;7.370;2022-12-18T15:41:34;-1.60;79.40
22379;DHT22;11357;49.990;7.370;2022-12-18T15:44:00;-1.60;79.40
22379;DHT22;11357;49.990;7.370;2022-12-18T15:46:26;-1.50;79.40
22379;DHT22;11357;49.990;7.370;2022-12-18T15:48:56;-1.50;79.40
22379;DHT22;11357;49.990;7.370;2022-12-18T15:51:33;-1.50;79.40
22379;DHT22;11357;49.990;7.370;2022-12-18T15:54:02;-1.50;79.30
22379;DHT22;11357;49.990;7.370;2022-12-18T15:56:30;-1.50;79.30
22379;DHT22;11357;49.990;7.370;2022-12-18T15:59:16;-1.50;79.30
22379;DHT22;11357;49.990;7.370;2022-12-18T16:01:45;-1.50;79.30
22379;DHT22;11357;49.990;7.370;2022-12-18T16:04:13;-1.50;79.40
22379;DHT22;11357;49.990;7.370;2022-12-18T16:06:39;-1.40;79.40
22379;DHT22;11357;49.990;7.370;2022-12-18T16:09:05;-1.40;79.40
22379;DHT22;11357;49.990;7.370;2022-12-18T16:11:33;-1.50;79.40
22379;DHT22;11357;49.990;7.370;2022-12-18T16:14:18;-1.50;79.50
22379;DHT22;11357;49.990;7.370;2022-12-18T16:16:49;-1.50;79.60
22379;DHT22;11357;49.990;7.370;2022-12-18T16:19:15;-1.50;79.70
22379;DHT22;11357;49.990;7.370;2022-12-18T16:21:42;-1.50;79.70
22379;DHT22;11357;49.990;7.370;2022-12-18T16:24:19;-1.40;79.80
22379;DHT22;11357;49.990;7.370;2022-12-18T16:26:47;-1.40;79.70
22379;DHT22;11357;49.990;7.370;2022-12-18T16:29:13;-1.40;79.60
22379;DHT22;11357;49.990;7.370;2022-12-18T16:31:38;-1.40;79.60
22379;DHT22;11357;49.990;7.370;2022-12-18T16:36:43;-1.50;79.80
22379;DHT22;11357;49.990;7.370;2022-12-18T16:39:08;-1.50;79.80
22379;DHT22;11357;49.990;7.370;2022-12-18T16:41:34;-1.50;79.90
22379;DHT22;11357;49.990;7.370;2022-12-18T16:44:00;-1.50;80.00
22379;DHT22;11357;49.990;7.370;2022-12-18T16:46:26;-1.50;79.90
22379;DHT22;11357;49.990;7.370;2022-12-18T16:48:52;-1.50;80.00
22379;DHT22;11357;49.990;7.370;2022-12-18T16:51:18;-1.40;80.00
22379;DHT22;11357;49.990;7.370;2022-12-18T16:53:43;-1.40;80.00
22379;DHT22;11357;49.990;7.370;2022-12-18T16:56:09;-1.40;80.00
22379;DHT22;11357;49.990;7.370;2022-12-18T16:58:34;-1.30;80.00
22379;DHT22;11357;49.990;7.370;2022-12-18T17:01:00;-1.30;80.00
22379;DHT22;11357;49.990;7.370;2022-12-18T17:03:26;-1.30;80.00
22379;DHT22;11357;49.990;7.370;2022-12-18T17:05:52;-1.30;80.00
22379;DHT22;11357;49.990;7.370;2022-12-18T17:08:18;-1.40;80.00
22379;DHT22;11357;49.990;7.370;2022-12-18T17:10:43;-1.40;80.00
22379;DHT22;11357;49.990;7.370;2022-12-18T17:13:09;-1.30;80.00
22379;DHT22;11357;49.990;7.370;2022-12-18T17:15:35;-1.30;80.10
22379;DHT22;11357;49.990;7.370;2022-12-18T17:18:02;-1.30;80.00
22379;DHT22;11357;49.990;7.370;2022-12-18T17:20:29;-1.20;80.10
22379;DHT22;11357;49.990;7.370;2022-12-18T17:22:55;-1.20;80.00
22379;DHT22;11357;49.990;7.370;2022-12-18T17:25:23;-1.20;79.90
22379;DHT22;11357;49.990;7.370;2022-12-18T17:27:50;-1.10;80.00
22379;DHT22;11357;49.990;7.370;2022-12-18T17:30:16;-1.10;79.90
22379;DHT22;11357;49.990;7.370;2022-12-18T17:32:41;-1.10;79.90
22379;DHT22;11357;49.990;7.370;2022-12-18T17:35:07;-1.00;79.90
22379;DHT22;11357;49.990;7.370;2022-12-18T17:37:33;-1.00;79.80
22379;DHT22;11357;49.990;7.370;2022-12-18T17:39:59;-1.00;79.70
22379;DHT22;11357;49.990;7.370;2022-12-18T17:42:24;-1.00;79.60
22379;DHT22;11357;49.990;7.370;2022-12-18T17:44:50;-1.00;79.70
22379;DHT22;11357;49.990;7.370;2022-12-18T17:47:17;-1.00;79.70
22379;DHT22;11357;49.990;7.370;2022-12-18T17:49:42;-0.90;79.80
22379;DHT22;11357;49.990;7.370;2022-12-18T17:52:09;-0.90;79.80
22379;DHT22;11357;49.990;7.370;2022-12-18T17:54:35;-0.90;79.80
22379;DHT22;11357;49.990;7.370;2022-12-18T17:57:04;-0.90;79.80
22379;DHT22;11357;49.990;7.370;2022-12-18T17:59:30;-0.90;79.70
22379;DHT22;11357;49.990;7.370;2022-12-18T18:01:56;-0.90;79.70
22379;DHT22;11357;49.990;7.370;2022-12-18T18:04:21;-0.90;79.70
22379;DHT22;11357;49.990;7.370;2022-12-18T18:06:47;-0.80;79.80
22379;DHT22;11357;49.990;7.370;2022-12-18T18:09:13;-0.80;79.80
22379;DHT22;11357;49.990;7.370;2022-12-18T18:11:38;-0.90;79.80
22379;DHT22;11357;49.990;7.370;2022-12-18T18:14:23;-0.90;79.90
22379;DHT22;11357;49.990;7.370;2022-12-18T18:16:50;-0.90;80.00